sensor_id;sensor_type;location;lat;lon;timestamp;pressure;altitude;pressure_sealevel;temperature;humidity
71057;BME280;58380;48.312;9.246;2022-10-16T06:29:47;93696.19;;;10.96;100.00
71057;BME280;58380;48.312;9.246;2022-10-16T06:32:12;93691.16;;;10.95;100.00
71057;BME280;58380;48.312;9.246;2022-10-16T06:34:38;93682.97;;;10.96;100.00
71057;BME280;58380;48.312;9.246;2022-10-16T06:37:05;93707.09;;;11.26;100.00
71057;BME280;58380;48.312;9.246;2022-10-16T06:39:30;93671.38;;;11.08;100.00
71057;BME280;58380;48.312;9.246;2022-10-16T06:41:55;93687.56;;;11.32;100.00
71057;BME280;58380;48.312;9.246;2022-10-16T06:44:21;93713.00;;;11.53;100.00
71057;BME280;58380;48.312;9.246;2022-10-16T06:46:46;93713.28;;;11.67;100.00
71057;BME280;58380;48.312;9.246;2022-10-16T06:49:12;93691.06;;;11.63;100.00
71057;BME280;58380;48.312;9.246;2022-10-16T06:51:38;93713.31;;;11.82;100.00
71057;BME280;58380;48.312;9.246;2022-10-16T06:54:06;93712.03;;;11.95;100.00
71057;BME280;58380;48.312;9.246;2022-10-16T06:56:32;93710.69;;;11.98;100.00
71057;BME280;58380;48.312;9.246;2022-10-16T06:58:58;93692.72;;;11.90;100.00
71057;BME280;58380;48.312;9.246;2022-10-16T07:01:25;93721.03;;;12.04;100.00
71057;BME280;58380;48.312;9.246;2022-10-16T07:03:51;93704.09;;;12.00;100.00
71057;BME280;58380;48.312;9.246;2022-10-16T07:06:21;93726.59;;;12.13;100.00
71057;BME280;58380;48.312;9.246;2022-10-16T07:08:49;93729.50;;;12.27;100.00
71057;BME280;58380;48.312;9.246;2022-10-16T07:11:16;93685.84;;;12.04;100.00
71057;BME280;58380;48.312;9.246;2022-10-16T07:13:47;93719.69;;;12.33;100.00
71057;BME280;58380;48.312;9.246;2022-10-16T07:16:19;93722.09;;;12.34;100.00
71057;BME280;58380;48.312;9.246;2022-10-16T07:18:47;93734.00;;;12.42;100.00
71057;BME280;58380;48.312;9.246;2022-10-16T07:21:16;93770.22;;;12.77;100.00
71057;BME280;58380;48.312;9.246;2022-10-16T07:23:49;93733.19;;;12.62;100.00
71057;BME280;58380;48.312;9.246;2022-10-16T07:26:19;93751.97;;;12.76;100.00
71057;BME280;58380;48.312;9.246;2022-10-16T07:28:45;93753.56;;;12.77;100.00
71057;BME280;58380;48.312;9.246;2022-10-16T07:31:12;93778.44;;;12.91;100.00
71057;BME280;58380;48.312;9.246;2022-10-16T07:33:41;93792.69;;;13.00;100.00
71057;BME280;58380;48.312;9.246;2022-10-16T07:36:09;93756.44;;;12.80;100.00
71057;BME280;58380;48.312;9.246;2022-10-16T07:38:36;93716.00;;;12.49;100.00
71057;BME280;58380;48.312;9.246;2022-10-16T07:41:03;93794.31;;;13.01;100.00
71057;BME280;58380;48.312;9.246;2022-10-16T07:43:31;93798.53;;;13.07;100.00
71057;BME280;58380;48.312;9.246;2022-10-16T07:45:57;93801.69;;;13.09;100.00
71057;BME280;58380;48.312;9.246;2022-10-16T07:48:27;93740.03;;;12.83;100.00
71057;BME280;58380;48.312;9.246;2022-10-16T07:51:00;93800.09;;;13.19;100.00
71057;BME280;58380;48.312;9.246;2022-10-16T07:53:27;93775.47;;;13.18;100.00
71057;BME280;58380;48.312;9.246;2022-10-16T07:56:06;93763.25;;;13.17;100.00
71057;BME280;58380;48.312;9.246;2022-10-16T07:58:34;93782.28;;;13.40;100.00
71057;BME280;58380;48.312;9.246;2022-10-16T08:01:10;93805.06;;;13.51;100.00
71057;BME280;58380;48.312;9.246;2022-10-16T08:03:38;93820.16;;;13.55;100.00
71057;BME280;58380;48.312;9.246;2022-10-16T08:06:07;93811.66;;;13.64;99.87
71057;BME280;58380;48.312;9.246;2022-10-16T08:08:32;93805.03;;;13.56;96.66
71057;BME280;58380;48.312;9.246;2022-10-16T08:10:58;93824.84;;;13.79;96.90
71057;BME280;58380;48.312;9.246;2022-10-16T08:13:24;93826.69;;;13.84;97.45
71057;BME280;58380;48.312;9.246;2022-10-16T08:15:49;93781.91;;;13.67;97.03
71057;BME280;58380;48.312;9.246;2022-10-16T08:18:15;93826.84;;;13.97;96.28
71057;BME280;58380;48.312;9.246;2022-10-16T08:20:42;93818.88;;;14.02;96.53
71057;BME280;58380;48.312;9.246;2022-10-16T08:23:10;93782.09;;;13.86;95.88
71057;BME280;58380;48.312;9.246;2022-10-16T08:25:37;93810.88;;;14.08;94.84
71057;BME280;58380;48.312;9.246;2022-10-16T08:28:04;93807.69;;;14.11;94.43
71057;BME280;58380;48.312;9.246;2022-10-16T08:30:31;93815.63;;;14.16;93.28
71057;BME280;58380;48.312;9.246;2022-10-16T08:32:57;93821.44;;;14.23;94.09
71057;BME280;58380;48.312;9.246;2022-10-16T08:35:23;93832.00;;;14.28;95.01
71057;BME280;58380;48.312;9.246;2022-10-16T08:37:49;93831.47;;;14.31;93.58
71057;BME280;58380;48.312;9.246;2022-10-16T08:40:25;93829.59;;;14.32;94.36
71057;BME280;58380;48.312;9.246;2022-10-16T08:46:14;93842.31;;;14.35;91.41
71057;BME280;58380;48.312;9.246;2022-10-16T08:48:49;93851.81;;;14.46;91.13
71057;BME280;58380;48.312;9.246;2022-10-16T08:51:36;93849.91;;;14.52;90.77
71057;BME280;58380;48.312;9.246;2022-10-16T08:54:35;93852.81;;;14.60;91.68
71057;BME280;58380;48.312;9.246;2022-10-16T08:57:11;93840.88;;;14.58;90.96
71057;BME280;58380;48.312;9.246;2022-10-16T08:59:39;93838.41;;;14.66;90.65
71057;BME280;58380;48.312;9.246;2022-10-16T09:08:28;93856.56;;;14.88;87.55
71057;BME280;58380;48.312;9.246;2022-10-16T09:11:14;93842.50;;;14.88;87.58
71057;BME280;58380;48.312;9.246;2022-10-16T09:16:36;93815.63;;;14.89;86.95
71057;BME280;58380;48.312;9.246;2022-10-16T09:21:38;93879.03;;;15.36;85.33
71057;BME280;58380;48.312;9.246;2022-10-16T09:26:44;93851.66;;;15.30;85.38
71057;BME280;58380;48.312;9.246;2022-10-16T09:29:12;93876.81;;;15.43;85.07
71057;BME280;58380;48.312;9.246;2022-10-16T09:31:39;93883.41;;;15.50;86.39
71057;BME280;58380;48.312;9.246;2022-10-16T09:34:06;93856.09;;;15.40;85.03
71057;BME280;58380;48.312;9.246;2022-10-16T09:37:03;93865.78;;;15.54;83.91
71057;BME280;58380;48.312;9.246;2022-10-16T09:39:47;93887.53;;;15.62;82.64
71057;BME280;58380;48.312;9.246;2022-10-16T09:42:20;93871.28;;;15.63;83.51
71057;BME280;58380;48.312;9.246;2022-10-16T09:44:53;93890.41;;;15.70;82.84
71057;BME280;58380;48.312;9.246;2022-10-16T09:47:29;93902.63;;;15.71;82.63
71057;BME280;58380;48.312;9.246;2022-10-16T09:50:00;93880.00;;;15.69;82.70
71057;BME280;58380;48.312;9.246;2022-10-16T09:52:31;93874.06;;;15.77;82.55
71057;BME280;58380;48.312;9.246;2022-10-16T09:55:01;93898.38;;;15.94;82.59
71057;BME280;58380;48.312;9.246;2022-10-16T09:57:48;93901.47;;;16.02;81.33
71057;BME280;58380;48.312;9.246;2022-10-16T10:00:17;93860.38;;;15.89;83.05
71057;BME280;58380;48.312;9.246;2022-10-16T10:02:45;93889.72;;;16.08;81.00
71057;BME280;58380;48.312;9.246;2022-10-16T10:05:19;93901.03;;;16.18;81.62
71057;BME280;58380;48.312;9.246;2022-10-16T10:07:54;93879.59;;;16.05;81.55
71057;BME280;58380;48.312;9.246;2022-10-16T10:10:27;93897.63;;;16.13;80.17
71057;BME280;58380;48.312;9.246;2022-10-16T10:12:55;93899.78;;;16.11;80.96
71057;BME280;58380;48.312;9.246;2022-10-16T10:15:22;93885.44;;;16.07;81.81
71057;BME280;58380;48.312;9.246;2022-10-16T10:17:54;93892.81;;;16.15;83.97
71057;BME280;58380;48.312;9.246;2022-10-16T10:20:28;93898.09;;;16.20;84.04
71057;BME280;58380;48.312;9.246;2022-10-16T10:23:00;93894.06;;;16.23;84.84
71057;BME280;58380;48.312;9.246;2022-10-16T10:28:47;93900.63;;;16.30;84.83
71057;BME280;58380;48.312;9.246;2022-10-16T10:31:44;93872.56;;;16.14;84.08
71057;BME280;58380;48.312;9.246;2022-10-16T10:34:35;93894.63;;;16.38;83.11
71057;BME280;58380;48.312;9.246;2022-10-16T10:37:33;93891.91;;;16.44;81.40
71057;BME280;58380;48.312;9.246;2022-10-16T10:40:27;93897.53;;;16.61;82.75
71057;BME280;58380;48.312;9.246;2022-10-16T10:43:06;93858.56;;;16.46;80.23
71057;BME280;58380;48.312;9.246;2022-10-16T10:45:47;93872.81;;;16.55;79.09
71057;BME280;58380;48.312;9.246;2022-10-16T10:48:51;93894.28;;;16.64;79.30
71057;BME280;58380;48.312;9.246;2022-10-16T10:51:53;93895.56;;;16.67;79.95
71057;BME280;58380;48.312;9.246;2022-10-16T10:54:51;93888.97;;;16.83;77.59
71057;BME280;58380;48.312;9.246;2022-10-16T11:00:17;93887.72;;;16.94;76.07
71057;BME280;58380;48.312;9.246;2022-10-16T11:02:55;93861.94;;;16.90;78.39
71057;BME280;58380;48.312;9.246;2022-10-16T11:05:45;93853.78;;;17.00;76.28
71057;BME280;58380;48.312;9.246;2022-10-16T11:11:25;93852.69;;;17.01;74.25
71057;BME280;58380;48.312;9.246;2022-10-16T11:14:15;93860.94;;;17.18;74.48
71057;BME280;58380;48.312;9.246;2022-10-16T11:16:52;93878.19;;;17.40;72.91
71057;BME280;58380;48.312;9.246;2022-10-16T11:25:25;93880.78;;;17.73;72.71
71057;BME280;58380;48.312;9.246;2022-10-16T11:30:34;93833.41;;;17.78;72.30
71057;BME280;58380;48.312;9.246;2022-10-16T11:33:22;93840.47;;;17.88;71.90
71057;BME280;58380;48.312;9.246;2022-10-16T11:39:04;93863.06;;;18.32;69.50
71057;BME280;58380;48.312;9.246;2022-10-16T11:41:45;93845.28;;;18.27;70.48
71057;BME280;58380;48.312;9.246;2022-10-16T11:49:47;93832.75;;;18.37;72.04
71057;BME280;58380;48.312;9.246;2022-10-16T11:52:25;93821.13;;;18.32;72.95
71057;BME280;58380;48.312;9.246;2022-10-16T11:55:20;93857.34;;;18.61;71.95
71057;BME280;58380;48.312;9.246;2022-10-16T11:57:51;93833.75;;;18.41;72.62
71057;BME280;58380;48.312;9.246;2022-10-16T12:00:31;93853.41;;;18.59;72.10
71057;BME280;58380;48.312;9.246;2022-10-16T12:03:20;93863.97;;;18.78;70.54
71057;BME280;58380;48.312;9.246;2022-10-16T12:06:09;93854.00;;;18.92;71.01
71057;BME280;58380;48.312;9.246;2022-10-16T12:09:21;93818.56;;;18.86;67.90
71057;BME280;58380;48.312;9.246;2022-10-16T12:11:50;93823.59;;;19.10;65.04
71057;BME280;58380;48.312;9.246;2022-10-16T12:16:56;93852.31;;;19.50;63.47
71057;BME280;58380;48.312;9.246;2022-10-16T12:19:26;93850.31;;;19.64;62.28
71057;BME280;58380;48.312;9.246;2022-10-16T12:21:56;93801.22;;;19.37;61.23
71057;BME280;58380;48.312;9.246;2022-10-16T12:24:37;93844.06;;;19.69;61.43
71057;BME280;58380;48.312;9.246;2022-10-16T12:27:20;93824.44;;;19.51;60.97
71057;BME280;58380;48.312;9.246;2022-10-16T12:30:01;93844.31;;;19.58;62.45
71057;BME280;58380;48.312;9.246;2022-10-16T12:32:36;93828.16;;;19.41;62.36
71057;BME280;58380;48.312;9.246;2022-10-16T12:35:16;93771.91;;;19.01;62.41
71057;BME280;58380;48.312;9.246;2022-10-16T12:37:45;93833.72;;;19.45;61.49
71057;BME280;58380;48.312;9.246;2022-10-16T12:40:25;93832.44;;;19.42;62.82
71057;BME280;58380;48.312;9.246;2022-10-16T12:42:54;93834.75;;;19.35;60.41
71057;BME280;58380;48.312;9.246;2022-10-16T12:45:28;93823.84;;;19.31;61.40
71057;BME280;58380;48.312;9.246;2022-10-16T12:47:58;93831.25;;;19.34;63.33
71057;BME280;58380;48.312;9.246;2022-10-16T12:53:00;93842.31;;;19.42;66.71
71057;BME280;58380;48.312;9.246;2022-10-16T12:55:35;93842.47;;;19.36;66.90
71057;BME280;58380;48.312;9.246;2022-10-16T12:58:45;93850.16;;;19.60;65.40
71057;BME280;58380;48.312;9.246;2022-10-16T13:07:48;93857.31;;;19.74;65.56
71057;BME280;58380;48.312;9.246;2022-10-16T13:10:40;93840.31;;;19.47;65.02
71057;BME280;58380;48.312;9.246;2022-10-16T13:20:12;93844.28;;;18.96;67.95
71057;BME280;58380;48.312;9.246;2022-10-16T13:23:15;93856.50;;;19.11;68.11
71057;BME280;58380;48.312;9.246;2022-10-16T13:25:51;93855.94;;;19.23;65.68
71057;BME280;58380;48.312;9.246;2022-10-16T13:28:50;93847.13;;;19.22;66.68
71057;BME280;58380;48.312;9.246;2022-10-16T13:31:19;93869.41;;;19.40;67.75
71057;BME280;58380;48.312;9.246;2022-10-16T13:33:51;93841.28;;;19.20;68.21
71057;BME280;58380;48.312;9.246;2022-10-16T13:36:55;93850.69;;;19.40;68.11
71057;BME280;58380;48.312;9.246;2022-10-16T13:39:27;93861.91;;;19.51;66.41
71057;BME280;58380;48.312;9.246;2022-10-16T13:42:17;93860.00;;;19.51;69.09
71057;BME280;58380;48.312;9.246;2022-10-16T13:44:53;93867.31;;;19.59;69.95
71057;BME280;58380;48.312;9.246;2022-10-16T13:47:27;93871.72;;;19.64;68.48
71057;BME280;58380;48.312;9.246;2022-10-16T13:50:03;93868.50;;;19.67;68.63
71057;BME280;58380;48.312;9.246;2022-10-16T13:52:31;93865.28;;;19.65;66.39
71057;BME280;58380;48.312;9.246;2022-10-16T13:54:56;93860.06;;;19.60;66.14
71057;BME280;58380;48.312;9.246;2022-10-16T13:57:23;93872.72;;;19.68;66.63
71057;BME280;58380;48.312;9.246;2022-10-16T13:59:49;93872.84;;;19.63;66.71
71057;BME280;58380;48.312;9.246;2022-10-16T14:02:31;93872.06;;;19.63;64.75
71057;BME280;58380;48.312;9.246;2022-10-16T14:05:01;93872.69;;;19.59;65.81
71057;BME280;58380;48.312;9.246;2022-10-16T14:07:31;93827.91;;;19.20;66.31
71057;BME280;58380;48.312;9.246;2022-10-16T14:10:02;93863.59;;;19.38;67.29
71057;BME280;58380;48.312;9.246;2022-10-16T14:12:31;93852.66;;;19.26;67.81
71057;BME280;58380;48.312;9.246;2022-10-16T14:14:58;93849.84;;;19.31;67.67
71057;BME280;58380;48.312;9.246;2022-10-16T14:17:27;93862.19;;;19.40;67.10
71057;BME280;58380;48.312;9.246;2022-10-16T14:19:57;93847.16;;;19.31;66.39
71057;BME280;58380;48.312;9.246;2022-10-16T14:22:35;93852.34;;;19.27;67.56
71057;BME280;58380;48.312;9.246;2022-10-16T14:27:57;93858.63;;;19.00;67.95
71057;BME280;58380;48.312;9.246;2022-10-16T14:30:23;93868.41;;;19.05;69.18
71057;BME280;58380;48.312;9.246;2022-10-16T14:33:00;93877.22;;;19.05;70.18
71057;BME280;58380;48.312;9.246;2022-10-16T14:35:36;93869.50;;;19.04;69.28
71057;BME280;58380;48.312;9.246;2022-10-16T14:38:04;93872.66;;;19.06;69.71
71057;BME280;58380;48.312;9.246;2022-10-16T14:40:33;93874.72;;;19.09;69.20
71057;BME280;58380;48.312;9.246;2022-10-16T14:43:04;93865.56;;;19.01;69.45
71057;BME280;58380;48.312;9.246;2022-10-16T14:45:33;93854.69;;;18.98;66.99
71057;BME280;58380;48.312;9.246;2022-10-16T14:48:05;93875.38;;;19.14;67.54
71057;BME280;58380;48.312;9.246;2022-10-16T14:50:39;93880.97;;;19.04;69.02
71057;BME280;58380;48.312;9.246;2022-10-16T14:53:11;93852.84;;;18.84;69.02
71057;BME280;58380;48.312;9.246;2022-10-16T14:55:47;93858.69;;;18.86;69.04
71057;BME280;58380;48.312;9.246;2022-10-16T14:58:19;93883.97;;;19.03;69.52
71057;BME280;58380;48.312;9.246;2022-10-16T15:00:47;93869.88;;;18.88;70.09
71057;BME280;58380;48.312;9.246;2022-10-16T15:03:14;93877.03;;;18.79;67.65
71057;BME280;58380;48.312;9.246;2022-10-16T15:05:40;93899.41;;;18.83;69.57
71057;BME280;58380;48.312;9.246;2022-10-16T15:08:05;93873.00;;;18.68;66.82
71057;BME280;58380;48.312;9.246;2022-10-16T15:10:32;93887.56;;;18.75;67.73
71057;BME280;58380;48.312;9.246;2022-10-16T15:13:00;93886.34;;;18.68;67.67
71057;BME280;58380;48.312;9.246;2022-10-16T15:17:59;93868.88;;;18.48;67.59
71057;BME280;58380;48.312;9.246;2022-10-16T15:20:27;93902.13;;;18.56;68.82
71057;BME280;58380;48.312;9.246;2022-10-16T15:22:56;93882.66;;;18.41;69.20
71057;BME280;58380;48.312;9.246;2022-10-16T15:25:36;93901.75;;;18.48;68.15
71057;BME280;58380;48.312;9.246;2022-10-16T15:28:07;93883.38;;;18.33;69.16
71057;BME280;58380;48.312;9.246;2022-10-16T15:30:34;93895.34;;;18.36;68.90
71057;BME280;58380;48.312;9.246;2022-10-16T15:33:01;93891.28;;;18.24;68.66
71057;BME280;58380;48.312;9.246;2022-10-16T15:35:27;93855.50;;;17.98;68.88
71057;BME280;58380;48.312;9.246;2022-10-16T15:37:53;93899.63;;;18.23;68.49
71057;BME280;58380;48.312;9.246;2022-10-16T15:40:19;93900.69;;;18.22;68.72
71057;BME280;58380;48.312;9.246;2022-10-16T15:42:46;93893.28;;;18.19;69.09
71057;BME280;58380;48.312;9.246;2022-10-16T15:45:12;93904.75;;;18.19;68.41
71057;BME280;58380;48.312;9.246;2022-10-16T15:47:40;93839.53;;;17.79;68.68
71057;BME280;58380;48.312;9.246;2022-10-16T15:50:08;93906.44;;;18.15;68.76
71057;BME280;58380;48.312;9.246;2022-10-16T15:52:36;93879.44;;;18.03;68.92
71057;BME280;58380;48.312;9.246;2022-10-16T15:55:02;93914.25;;;18.11;69.30
71057;BME280;58380;48.312;9.246;2022-10-16T15:57:28;93885.28;;;17.91;70.18
71057;BME280;58380;48.312;9.246;2022-10-16T15:59:54;93885.09;;;17.87;70.88
71057;BME280;58380;48.312;9.246;2022-10-16T16:02:19;93839.25;;;17.53;71.37
71057;BME280;58380;48.312;9.246;2022-10-16T16:04:45;93918.50;;;17.85;72.90
71057;BME280;58380;48.312;9.246;2022-10-16T16:07:10;93916.28;;;17.73;73.61
71057;BME280;58380;48.312;9.246;2022-10-16T16:09:36;93889.34;;;17.42;74.14
71057;BME280;58380;48.312;9.246;2022-10-16T16:12:01;93890.03;;;17.34;74.62
71057;BME280;58380;48.312;9.246;2022-10-16T16:14:27;93914.81;;;17.34;76.01
71057;BME280;58380;48.312;9.246;2022-10-16T16:16:54;93922.41;;;17.27;76.38
71057;BME280;58380;48.312;9.246;2022-10-16T16:19:20;93909.03;;;17.13;76.90
71057;BME280;58380;48.312;9.246;2022-10-16T16:21:49;93905.53;;;16.99;77.87
71057;BME280;58380;48.312;9.246;2022-10-16T16:24:15;93908.44;;;16.84;78.74
71057;BME280;58380;48.312;9.246;2022-10-16T16:26:41;93932.94;;;16.86;79.18
71057;BME280;58380;48.312;9.246;2022-10-16T16:29:11;93931.53;;;16.69;79.84
71057;BME280;58380;48.312;9.246;2022-10-16T16:31:39;93915.44;;;16.36;81.05
71057;BME280;58380;48.312;9.246;2022-10-16T16:34:06;93938.28;;;16.43;81.26
71057;BME280;58380;48.312;9.246;2022-10-16T16:36:33;93941.03;;;16.37;81.97
71057;BME280;58380;48.312;9.246;2022-10-16T16:38:59;93935.19;;;16.11;83.00
71057;BME280;58380;48.312;9.246;2022-10-16T16:41:27;93932.97;;;15.94;82.96
71057;BME280;58380;48.312;9.246;2022-10-16T16:43:54;93897.13;;;15.63;83.22
71057;BME280;58380;48.312;9.246;2022-10-16T16:46:25;93887.22;;;15.39;83.27
71057;BME280;58380;48.312;9.246;2022-10-16T16:48:51;93880.88;;;15.06;84.73
71057;BME280;58380;48.312;9.246;2022-10-16T16:51:18;93957.97;;;15.40;86.11
71057;BME280;58380;48.312;9.246;2022-10-16T16:53:47;93937.22;;;15.08;86.93
71057;BME280;58380;48.312;9.246;2022-10-16T16:56:15;93974.91;;;15.20;88.35
71057;BME280;58380;48.312;9.246;2022-10-16T16:58:41;93969.94;;;15.08;88.65
71057;BME280;58380;48.312;9.246;2022-10-16T17:01:09;93980.25;;;15.10;88.41
71057;BME280;58380;48.312;9.246;2022-10-16T17:03:35;93950.69;;;14.82;88.33
71057;BME280;58380;48.312;9.246;2022-10-16T17:06:06;93969.28;;;14.82;88.59
71057;BME280;58380;48.312;9.246;2022-10-16T17:08:34;93990.56;;;14.77;88.90
71057;BME280;58380;48.312;9.246;2022-10-16T17:11:00;93994.09;;;14.62;90.35
71057;BME280;58380;48.312;9.246;2022-10-16T17:13:29;93997.06;;;14.61;91.06
71057;BME280;58380;48.312;9.246;2022-10-16T17:16:00;93984.09;;;14.44;91.85
71057;BME280;58380;48.312;9.246;2022-10-16T17:18:25;94000.25;;;14.48;91.95
71057;BME280;58380;48.312;9.246;2022-10-16T17:20:51;94009.56;;;14.45;91.88
71057;BME280;58380;48.312;9.246;2022-10-16T17:23:18;94013.59;;;14.37;91.53
71057;BME280;58380;48.312;9.246;2022-10-16T17:25:45;94010.66;;;14.39;91.58
71057;BME280;58380;48.312;9.246;2022-10-16T17:28:12;94016.78;;;14.34;91.11
71057;BME280;58380;48.312;9.246;2022-10-16T17:30:39;94023.22;;;14.23;91.85
71057;BME280;58380;48.312;9.246;2022-10-16T17:33:06;94027.22;;;14.15;92.35
71057;BME280;58380;48.312;9.246;2022-10-16T17:35:51;94030.16;;;13.98;92.82
71057;BME280;58380;48.312;9.246;2022-10-16T17:38:16;94007.09;;;13.84;92.68
71057;BME280;58380;48.312;9.246;2022-10-16T17:40:42;94012.16;;;13.70;92.70
71057;BME280;58380;48.312;9.246;2022-10-16T17:43:07;93992.53;;;13.40;94.75
71057;BME280;58380;48.312;9.246;2022-10-16T17:45:37;93966.00;;;13.09;96.35
71057;BME280;58380;48.312;9.246;2022-10-16T17:48:03;94021.72;;;13.45;95.76
71057;BME280;58380;48.312;9.246;2022-10-16T17:50:29;94036.59;;;13.51;95.57
71057;BME280;58380;48.312;9.246;2022-10-16T17:52:54;94014.31;;;13.32;95.29
71057;BME280;58380;48.312;9.246;2022-10-16T17:55:19;93998.09;;;13.18;94.75
71057;BME280;58380;48.312;9.246;2022-10-16T17:57:45;94000.47;;;13.14;95.13
71057;BME280;58380;48.312;9.246;2022-10-16T18:00:11;94044.53;;;13.31;96.82
71057;BME280;58380;48.312;9.246;2022-10-16T18:02:36;94014.25;;;13.06;97.05
71057;BME280;58380;48.312;9.246;2022-10-16T18:05:06;94046.59;;;13.13;96.36
71057;BME280;58380;48.312;9.246;2022-10-16T18:07:33;94049.75;;;13.00;96.33
71057;BME280;58380;48.312;9.246;2022-10-16T18:09:58;94046.03;;;12.96;97.61
71057;BME280;58380;48.312;9.246;2022-10-16T18:12:25;94056.66;;;13.01;98.61
71057;BME280;58380;48.312;9.246;2022-10-16T18:14:50;94044.41;;;12.85;97.74
71057;BME280;58380;48.312;9.246;2022-10-16T18:17:19;94057.44;;;12.97;97.60
71057;BME280;58380;48.312;9.246;2022-10-16T18:19:45;94017.63;;;12.71;98.20
71057;BME280;58380;48.312;9.246;2022-10-16T18:22:10;94030.34;;;12.74;100.00
71057;BME280;58380;48.312;9.246;2022-10-16T18:24:35;94050.00;;;12.83;98.60
71057;BME280;58380;48.312;9.246;2022-10-16T18:27:01;94044.09;;;12.66;97.96
71057;BME280;58380;48.312;9.246;2022-10-16T18:29:26;94065.84;;;12.73;97.10
71057;BME280;58380;48.312;9.246;2022-10-16T18:31:52;94058.88;;;12.51;96.99
71057;BME280;58380;48.312;9.246;2022-10-16T18:34:18;94066.56;;;12.53;96.96
71057;BME280;58380;48.312;9.246;2022-10-16T18:36:44;94058.81;;;12.36;96.93
71057;BME280;58380;48.312;9.246;2022-10-16T18:39:11;93993.72;;;11.87;97.52
71057;BME280;58380;48.312;9.246;2022-10-16T18:41:39;94066.22;;;12.34;98.26
71057;BME280;58380;48.312;9.246;2022-10-16T18:44:07;94058.22;;;12.24;98.59
71057;BME280;58380;48.312;9.246;2022-10-16T18:46:35;94076.75;;;12.24;97.92
71057;BME280;58380;48.312;9.246;2022-10-16T18:49:01;94060.50;;;12.05;98.02
71057;BME280;58380;48.312;9.246;2022-10-16T18:51:39;93994.34;;;11.62;98.69
71057;BME280;58380;48.312;9.246;2022-10-16T18:54:10;94075.91;;;12.13;98.41
71057;BME280;58380;48.312;9.246;2022-10-16T18:56:37;94090.34;;;12.00;98.47
71057;BME280;58380;48.312;9.246;2022-10-16T18:59:03;94086.91;;;12.00;98.62
71057;BME280;58380;48.312;9.246;2022-10-16T19:01:32;94049.91;;;11.68;98.50
71057;BME280;58380;48.312;9.246;2022-10-16T19:04:10;94070.03;;;11.69;98.23
71057;BME280;58380;48.312;9.246;2022-10-16T19:06:42;94106.53;;;11.72;97.80
71057;BME280;58380;48.312;9.246;2022-10-16T19:09:21;94050.44;;;11.32;97.26
71057;BME280;58380;48.312;9.246;2022-10-16T19:11:48;94101.91;;;11.57;97.91
71057;BME280;58380;48.312;9.246;2022-10-16T19:14:15;94107.66;;;11.49;98.00
71057;BME280;58380;48.312;9.246;2022-10-16T19:16:42;94114.16;;;11.36;97.75
71057;BME280;58380;48.312;9.246;2022-10-16T19:19:12;94111.41;;;11.26;98.72
71057;BME280;58380;48.312;9.246;2022-10-16T19:21:39;94122.19;;;11.19;99.10
71057;BME280;58380;48.312;9.246;2022-10-16T19:24:05;94081.75;;;10.91;99.29
71057;BME280;58380;48.312;9.246;2022-10-16T19:26:32;94122.69;;;11.16;99.17
71057;BME280;58380;48.312;9.246;2022-10-16T19:29:00;94121.25;;;11.08;99.10
71057;BME280;58380;48.312;9.246;2022-10-16T19:31:28;94097.66;;;10.96;99.27
71057;BME280;58380;48.312;9.246;2022-10-16T19:33:57;94119.50;;;11.14;100.00
71057;BME280;58380;48.312;9.246;2022-10-16T19:36:29;94089.97;;;10.95;100.00
71057;BME280;58380;48.312;9.246;2022-10-16T19:39:04;94064.75;;;10.82;100.00
71057;BME280;58380;48.312;9.246;2022-10-16T19:41:36;94072.09;;;10.80;100.00
71057;BME280;58380;48.312;9.246;2022-10-16T19:44:04;94097.28;;;10.88;100.00
71057;BME280;58380;48.312;9.246;2022-10-16T19:46:32;94080.81;;;10.80;100.00
71057;BME280;58380;48.312;9.246;2022-10-16T19:49:04;94110.06;;;10.96;100.00
71057;BME280;58380;48.312;9.246;2022-10-16T19:51:32;94123.91;;;11.08;100.00
71057;BME280;58380;48.312;9.246;2022-10-16T19:53:59;94133.41;;;11.04;100.00
71057;BME280;58380;48.312;9.246;2022-10-16T19:56:36;94077.72;;;10.62;100.00
71057;BME280;58380;48.312;9.246;2022-10-16T19:59:03;94108.00;;;10.76;99.99
71057;BME280;58380;48.312;9.246;2022-10-16T20:01:31;94108.00;;;10.76;100.00
71057;BME280;58380;48.312;9.246;2022-10-16T20:03:57;94130.81;;;10.87;100.00
71057;BME280;58380;48.312;9.246;2022-10-16T20:06:23;94112.16;;;10.72;100.00
71057;BME280;58380;48.312;9.246;2022-10-16T20:08:51;94080.66;;;10.43;99.65
71057;BME280;58380;48.312;9.246;2022-10-16T20:11:21;94144.75;;;10.83;100.00
71057;BME280;58380;48.312;9.246;2022-10-16T20:13:48;94140.34;;;10.66;100.00
71057;BME280;58380;48.312;9.246;2022-10-16T20:16:15;94127.09;;;10.61;100.00
71057;BME280;58380;48.312;9.246;2022-10-16T20:18:44;94153.63;;;10.71;100.00
71057;BME280;58380;48.312;9.246;2022-10-16T20:21:16;94161.59;;;10.76;100.00
71057;BME280;58380;48.312;9.246;2022-10-16T20:23:45;94162.88;;;10.74;100.00
71057;BME280;58380;48.312;9.246;2022-10-16T20:26:13;94171.03;;;10.72;100.00
71057;BME280;58380;48.312;9.246;2022-10-16T20:28:40;94168.66;;;10.71;100.00
71057;BME280;58380;48.312;9.246;2022-10-16T20:31:18;94170.75;;;10.69;100.00
71057;BME280;58380;48.312;9.246;2022-10-16T20:33:47;94147.25;;;10.50;100.00
71057;BME280;58380;48.312;9.246;2022-10-16T20:36:15;94149.38;;;10.48;100.00
71057;BME280;58380;48.312;9.246;2022-10-16T20:38:41;94158.63;;;10.51;100.00
71057;BME280;58380;48.312;9.246;2022-10-16T20:41:08;94168.38;;;10.50;100.00
71057;BME280;58380;48.312;9.246;2022-10-16T20:43:38;94184.13;;;10.62;100.00
71057;BME280;58380;48.312;9.246;2022-10-16T20:46:06;94172.00;;;10.44;100.00
71057;BME280;58380;48.312;9.246;2022-10-16T20:48:35;94205.16;;;10.57;100.00
71057;BME280;58380;48.312;9.246;2022-10-16T20:51:27;94204.31;;;10.51;100.00
71057;BME280;58380;48.312;9.246;2022-10-16T20:54:03;94207.44;;;10.48;100.00
71057;BME280;58380;48.312;9.246;2022-10-16T20:56:32;94214.22;;;10.44;100.00